Time;durP1;ratioP1;P1;durP2;ratioP2;P2;SDS_P1;SDS_P2;PMS_P1;PMS_P2;Temp;Humidity;BMP_temperature;BMP_pressure;BME280_temperature;BME280_humidity;BME280_pressure;Samples;Min_cycle;Max_cycle;Signal;HPM_P1;HPM_P2
2021/12/18 00:00:41;;;;;;;;;;;6.40;99.90;;;;;;5053644;28;20330;-63
2021/12/18 00:03:07;;;;;;;;;;;5.50;99.90;;;;;;5053367;28;20264;-66
2021/12/18 00:05:32;;;;;;;;;;;4.70;99.90;;;;;;5053715;28;19932;-64
2021/12/18 00:07:58;;;;;;;;;;;4.50;99.90;;;;;;5052958;28;19952;-62
2021/12/18 00:10:24;;;;;;;;;;;5.50;99.90;;;;;;5045033;28;20399;-63
2021/12/18 00:12:50;;;;;;;;;;;4.70;99.90;;;;;;5052926;28;19905;-64
2021/12/18 00:15:16;;;;;;;;;;;4.60;99.90;;;;;;5035357;28;20350;-64
2021/12/18 00:17:42;;;;;;;;;;;5.70;99.90;;;;;;5053333;28;20004;-62
2021/12/18 00:20:08;;;;;;;;;;;5.00;99.90;;;;;;5052775;28;19940;-64
2021/12/18 00:22:33;;;;;;;;;;;5.30;99.90;;;;;;5053178;28;19915;-64
2021/12/18 00:24:59;;;;;;;;;;;5.20;99.90;;;;;;5053190;28;20332;-64
2021/12/18 00:27:24;;;;;;;;;;;6.50;99.90;;;;;;5052948;28;20282;-64
2021/12/18 00:29:50;;;;;;;;;;;5.60;99.90;;;;;;5052199;28;19954;-63
2021/12/18 00:32:16;;;;;;;;;;;4.80;99.90;;;;;;5035220;28;19944;-64
2021/12/18 00:34:41;;;;;;;;;;;5.50;99.90;;;;;;5052925;28;20350;-63
2021/12/18 00:37:07;;;;;;;;;;;5.50;99.90;;;;;;5053134;28;19942;-63
2021/12/18 00:39:35;;;;;;;;;;;5.50;99.90;;;;;;5052190;28;20361;-64
2021/12/18 00:42:18;;;;;;;;;;;5.30;99.90;;;;;;5052845;28;19908;-64
2021/12/18 00:44:44;;;;;;;;;;;5.80;99.90;;;;;;5052402;28;19912;-64
2021/12/18 00:47:10;;;;;;;;;;;4.30;99.90;;;;;;5052742;28;19911;-63
2021/12/18 00:49:35;;;;;;;;;;;;;;;;;;5051974;28;19908;-64
2021/12/18 00:52:01;;;;;;;;;;;6.00;99.90;;;;;;5033892;28;20358;-63
2021/12/18 00:54:27;;;;;;;;;;;6.10;99.90;;;;;;5052411;28;20302;-64
2021/12/18 00:56:53;;;;;;;;;;;5.30;99.90;;;;;;5052626;28;19905;-64
2021/12/18 00:59:18;;;;;;;;;;;;;;;;;;5051776;28;19911;-64
2021/12/18 01:01:46;;;;;;;;;;;5.60;99.90;;;;;;5052642;28;19912;-63
2021/12/18 01:04:12;;;;;;;;;;;6.60;99.90;;;;;;5052915;28;19912;-62
2021/12/18 01:06:37;;;;;;;;;;;4.20;99.90;;;;;;5052506;28;19908;-64
2021/12/18 01:09:03;;;;;;;;;;;5.40;99.90;;;;;;5051651;28;19904;-64
2021/12/18 01:11:32;;;;;;;;;;;5.60;99.90;;;;;;5052300;28;19952;-69
2021/12/18 01:22:38;;;;;;;;;;;4.50;99.90;;;;;;5052340;28;19912;-64
2021/12/18 01:24:52;;;;;;;;;;;5.70;99.90;;;;;;5052218;28;20046;-64
2021/12/18 01:27:18;;;;;;;;;;;3.90;99.90;;;;;;5050221;28;19909;-64
2021/12/18 01:29:44;;;;;;;;;;;4.90;99.90;;;;;;5051071;28;19905;-64
2021/12/18 01:32:10;;;;;;;;;;;;;;;;;;5051826;28;19912;-64
2021/12/18 01:34:36;;;;;;;;;;;4.10;99.90;;;;;;5051881;28;19904;-64
2021/12/18 01:37:02;;;;;;;;;;;5.20;99.90;;;;;;5051693;28;19905;-66
2021/12/18 01:39:27;;;;;;;;;;;4.50;99.90;;;;;;5051451;28;19962;-64
2021/12/18 01:44:49;;;;;;;;;;;;;;;;;;5051460;28;19963;-63
2021/12/18 01:52:36;;;;;;;;;;;3.30;99.90;;;;;;5052255;28;19912;-62
2021/12/18 01:55:02;;;;;;;;;;;5.50;99.90;;;;;;5051600;28;20274;-63
2021/12/18 01:57:29;;;;;;;;;;;4.10;99.90;;;;;;5051925;28;19912;-63
2021/12/18 01:59:54;;;;;;;;;;;5.50;99.90;;;;;;5050808;28;20305;-63
2021/12/18 02:02:20;;;;;;;;;;;3.70;99.90;;;;;;5052645;28;19939;-63
2021/12/18 02:04:46;;;;;;;;;;;5.00;99.90;;;;;;5055923;28;19947;-63
2021/12/18 02:07:13;;;;;;;;;;;5.80;99.90;;;;;;5055797;28;19994;-63
2021/12/18 02:12:29;;;;;;;;;;;;;;;;;;5055779;28;19912;-63
2021/12/18 02:20:21;;;;;;;;;;;4.40;99.90;;;;;;5055308;28;20043;-62
2021/12/18 02:22:46;;;;;;;;;;;4.10;99.90;;;;;;5054634;28;19912;-62
2021/12/18 02:25:12;;;;;;;;;;;4.00;99.90;;;;;;5049776;28;19935;-63
2021/12/18 02:27:37;;;;;;;;;;;4.00;99.90;;;;;;5052598;28;19912;-63
2021/12/18 02:30:04;;;;;;;;;;;4.00;99.90;;;;;;5054456;28;19912;-63
2021/12/18 02:32:30;;;;;;;;;;;6.10;99.90;;;;;;5036814;28;19911;-62
2021/12/18 02:34:58;;;;;;;;;;;4.70;99.90;;;;;;5055101;28;19904;-63
2021/12/18 02:37:27;;;;;;;;;;;4.30;99.90;;;;;;5055457;28;20283;-63
2021/12/18 02:40:47;;;;;;;;;;;5.60;99.90;;;;;;5054544;28;19904;-63
2021/12/18 02:42:38;;;;;;;;;;;4.50;99.90;;;;;;5054407;28;20011;-63
2021/12/18 02:45:06;;;;;;;;;;;3.40;99.90;;;;;;5054114;28;19952;-63
2021/12/18 02:47:31;;;;;;;;;;;3.00;99.90;;;;;;5054392;28;19961;-63
2021/12/18 02:49:57;;;;;;;;;;;4.10;99.90;;;;;;5036296;28;20399;-63
2021/12/18 02:52:29;;;;;;;;;;;4.50;99.90;;;;;;5054901;28;20359;-63
2021/12/18 02:54:55;;;;;;;;;;;4.80;99.90;;;;;;5036982;28;20286;-61
2021/12/18 02:57:20;;;;;;;;;;;3.90;99.90;;;;;;5054802;28;19959;-63
2021/12/18 02:59:47;;;;;;;;;;;3.50;99.90;;;;;;5053706;28;19908;-63
2021/12/18 03:02:13;;;;;;;;;;;4.40;99.90;;;;;;5054819;28;19908;-62
2021/12/18 03:04:41;;;;;;;;;;;4.40;99.90;;;;;;5054991;28;19909;-62
2021/12/18 03:07:09;;;;;;;;;;;5.50;99.90;;;;;;5054766;28;19958;-63
2021/12/18 03:25:43;;;;;;;;;;;3.60;99.90;;;;;;5054625;28;20434;-62
2021/12/18 03:28:09;;;;;;;;;;;4.40;99.90;;;;;;5053681;28;19963;-62
2021/12/18 03:30:35;;;;;;;;;;;4.30;99.90;;;;;;5053984;28;19909;-62
2021/12/18 03:33:01;;;;;;;;;;;4.80;99.90;;;;;;5054344;28;19963;-63
2021/12/18 03:35:27;;;;;;;;;;;4.30;99.90;;;;;;5054892;28;20302;-63
2021/12/18 03:37:53;;;;;;;;;;;3.60;99.90;;;;;;5053991;28;19947;-63
2021/12/18 03:40:19;;;;;;;;;;;3.70;99.90;;;;;;5054412;28;19904;-61
2021/12/18 03:42:45;;;;;;;;;;;3.60;99.90;;;;;;5053938;28;19999;-63
2021/12/18 03:45:11;;;;;;;;;;;2.90;99.90;;;;;;5053717;28;20011;-63
2021/12/18 03:47:37;;;;;;;;;;;3.40;99.90;;;;;;5053926;28;20282;-63
2021/12/18 03:50:03;;;;;;;;;;;4.90;99.90;;;;;;5053575;28;19904;-63
2021/12/18 03:52:29;;;;;;;;;;;4.50;99.90;;;;;;5054048;28;19905;-63
2021/12/18 03:54:54;;;;;;;;;;;4.70;99.90;;;;;;5054246;28;19911;-61
2021/12/18 03:57:20;;;;;;;;;;;4.80;99.90;;;;;;5054704;28;20301;-62
2021/12/18 03:59:46;;;;;;;;;;;4.80;99.90;;;;;;5053171;28;20381;-63
2021/12/18 04:02:11;;;;;;;;;;;5.30;99.90;;;;;;5053989;28;20282;-62
2021/12/18 04:04:37;;;;;;;;;;;4.30;99.90;;;;;;5054703;28;19909;-63
2021/12/18 04:07:02;;;;;;;;;;;3.40;99.90;;;;;;5054424;28;20003;-63
2021/12/18 04:09:29;;;;;;;;;;;4.20;99.90;;;;;;5052996;28;19987;-61
2021/12/18 04:11:54;;;;;;;;;;;5.10;99.90;;;;;;5053791;28;20003;-61
2021/12/18 04:14:20;;;;;;;;;;;5.20;99.90;;;;;;5054220;28;20378;-60
2021/12/18 04:16:46;;;;;;;;;;;;;;;;;;5053350;28;19911;-62
2021/12/18 04:19:12;;;;;;;;;;;4.40;99.90;;;;;;5052660;28;19904;-62
2021/12/18 04:21:38;;;;;;;;;;;3.40;99.90;;;;;;5053516;28;19962;-63
2021/12/18 04:24:04;;;;;;;;;;;4.70;99.90;;;;;;5054077;28;19908;-63
2021/12/18 04:26:30;;;;;;;;;;;5.50;99.90;;;;;;5052947;28;19905;-61
2021/12/18 04:28:56;;;;;;;;;;;5.20;99.90;;;;;;5052147;28;19958;-60
2021/12/18 04:31:22;;;;;;;;;;;4.90;99.90;;;;;;5052962;28;19904;-61
2021/12/18 04:33:47;;;;;;;;;;;3.50;99.90;;;;;;5035115;28;20267;-63
2021/12/18 04:36:13;;;;;;;;;;;3.60;99.90;;;;;;5052500;28;20422;-62
2021/12/18 04:38:38;;;;;;;;;;;5.30;99.90;;;;;;5043876;28;19988;-62
2021/12/18 04:41:05;;;;;;;;;;;3.20;99.90;;;;;;5052940;28;20455;-61
2021/12/18 04:43:30;;;;;;;;;;;5.20;99.90;;;;;;5052675;28;19912;-62
2021/12/18 04:45:56;;;;;;;;;;;3.10;99.90;;;;;;5052410;28;19905;-60
2021/12/18 04:48:22;;;;;;;;;;;;;;;;;;5052291;28;19912;-62
2021/12/18 04:50:48;;;;;;;;;;;4.30;99.90;;;;;;5052577;28;19909;-60
2021/12/18 04:53:13;;;;;;;;;;;3.80;99.90;;;;;;5052392;28;19999;-62
2021/12/18 04:55:39;;;;;;;;;;;4.10;99.90;;;;;;5051944;28;20039;-61
2021/12/18 04:58:05;;;;;;;;;;;;;;;;;;5051315;28;19904;-61
2021/12/18 05:00:38;;;;;;;;;;;3.20;99.90;;;;;;5051694;28;20282;-61
2021/12/18 05:03:06;;;;;;;;;;;3.30;99.90;;;;;;5050057;28;19966;-61
2021/12/18 05:05:32;;;;;;;;;;;3.70;99.90;;;;;;5044146;28;19905;-62
2021/12/18 05:07:58;;;;;;;;;;;4.40;99.90;;;;;;5048284;28;19963;-61
2021/12/18 05:10:23;;;;;;;;;;;2.70;99.90;;;;;;5047511;28;19912;-61
2021/12/18 05:12:49;;;;;;;;;;;;;;;;;;5051927;28;19958;-62
2021/12/18 05:15:15;;;;;;;;;;;3.10;99.90;;;;;;5045903;28;19909;-62
2021/12/18 05:17:40;;;;;;;;;;;5.00;99.90;;;;;;5032217;28;19912;-61
2021/12/18 05:20:06;;;;;;;;;;;4.80;99.90;;;;;;5031876;28;19905;-60
2021/12/18 05:22:32;;;;;;;;;;;3.10;99.90;;;;;;5032119;28;19909;-61
2021/12/18 05:24:58;;;;;;;;;;;;;;;;;;5032268;28;20282;-61
2021/12/18 05:27:23;;;;;;;;;;;3.70;99.90;;;;;;5043201;28;20016;-61
2021/12/18 05:29:49;;;;;;;;;;;3.50;99.90;;;;;;5042850;28;19908;-59
2021/12/18 05:32:14;;;;;;;;;;;2.50;99.90;;;;;;5052133;28;19905;-63
2021/12/18 05:34:40;;;;;;;;;;;3.70;99.90;;;;;;5051928;28;19905;-63
2021/12/18 05:37:30;;;;;;;;;;;4.30;99.90;;;;;;5051352;28;20263;-63
2021/12/18 05:39:56;;;;;;;;;;;2.00;99.90;;;;;;5051058;28;19935;-63
2021/12/18 05:42:21;;;;;;;;;;;3.30;99.90;;;;;;5050751;28;19916;-62
2021/12/18 05:44:47;;;;;;;;;;;3.60;99.90;;;;;;5050178;28;19916;-63
2021/12/18 05:47:12;;;;;;;;;;;3.20;99.90;;;;;;5051924;28;20374;-63
2021/12/18 05:49:38;;;;;;;;;;;4.10;99.90;;;;;;5051317;28;20358;-61
2021/12/18 05:52:04;;;;;;;;;;;4.10;99.90;;;;;;5051662;28;19912;-62
2021/12/18 05:54:34;;;;;;;;;;;2.20;99.90;;;;;;5051750;28;19904;-61
2021/12/18 05:57:01;;;;;;;;;;;3.10;99.90;;;;;;5051746;28;19905;-62
2021/12/18 05:59:27;;;;;;;;;;;4.20;99.90;;;;;;5050983;28;19908;-61
2021/12/18 06:01:53;;;;;;;;;;;;;;;;;;5051699;28;19908;-63
2021/12/18 06:04:18;;;;;;;;;;;2.70;99.90;;;;;;5051760;28;19965;-63
2021/12/18 06:06:44;;;;;;;;;;;4.20;99.90;;;;;;5051747;28;19982;-61
2021/12/18 06:09:11;;;;;;;;;;;4.50;99.90;;;;;;5050785;28;20362;-62
2021/12/18 06:11:38;;;;;;;;;;;;;;;;;;5051445;28;19904;-62
2021/12/18 06:14:04;;;;;;;;;;;4.20;99.90;;;;;;5051441;28;19904;-63
2021/12/18 06:16:29;;;;;;;;;;;4.10;99.90;;;;;;5051501;28;19952;-62
2021/12/18 06:18:55;;;;;;;;;;;4.20;99.90;;;;;;5050903;28;19904;-64
2021/12/18 06:21:22;;;;;;;;;;;3.40;99.90;;;;;;5051385;28;19951;-59
2021/12/18 06:23:48;;;;;;;;;;;4.20;99.90;;;;;;5051201;28;19943;-62
2021/12/18 06:26:14;;;;;;;;;;;3.90;99.90;;;;;;5051549;28;19958;-62
2021/12/18 06:28:40;;;;;;;;;;;4.10;99.90;;;;;;5050815;28;19955;-62
2021/12/18 06:31:06;;;;;;;;;;;3.70;99.90;;;;;;5051339;28;19916;-62
2021/12/18 06:33:31;;;;;;;;;;;4.00;99.90;;;;;;5051587;28;19947;-61
2021/12/18 06:35:57;;;;;;;;;;;;;;;;;;5051432;28;20751;-61
2021/12/18 06:38:23;;;;;;;;;;;3.20;99.90;;;;;;5032572;28;20417;-61
2021/12/18 06:40:49;;;;;;;;;;;4.30;99.90;;;;;;5051320;28;19947;-63
2021/12/18 06:43:14;;;;;;;;;;;1.90;99.90;;;;;;5051124;28;19951;-60
2021/12/18 06:45:40;;;;;;;;;;;3.30;99.90;;;;;;5050957;28;19908;-63
2021/12/18 06:48:06;;;;;;;;;;;;;;;;;;5051085;28;19919;-63
2021/12/18 06:50:32;;;;;;;;;;;3.30;99.90;;;;;;5055030;28;19909;-62
2021/12/18 06:52:58;;;;;;;;;;;3.40;99.90;;;;;;5054704;28;19959;-63
2021/12/18 06:55:23;;;;;;;;;;;3.00;99.90;;;;;;5055007;28;19916;-62
2021/12/18 06:57:49;;;;;;;;;;;2.20;99.90;;;;;;5054301;28;19936;-64
2021/12/18 07:00:15;;;;;;;;;;;3.50;99.90;;;;;;5054571;28;19911;-62
2021/12/18 07:02:41;;;;;;;;;;;3.30;99.90;;;;;;5054913;28;19909;-62
2021/12/18 07:05:07;;;;;;;;;;;3.90;99.90;;;;;;5054893;28;20036;-62
2021/12/18 07:07:33;;;;;;;;;;;3.50;99.90;;;;;;5055171;28;19953;-62
2021/12/18 07:09:59;;;;;;;;;;;3.70;99.90;;;;;;5054321;28;19905;-64
2021/12/18 07:12:24;;;;;;;;;;;3.90;99.90;;;;;;5054860;28;20328;-61
2021/12/18 07:14:50;;;;;;;;;;;2.90;99.90;;;;;;5037060;28;20565;-63
2021/12/18 07:17:15;;;;;;;;;;;2.50;99.90;;;;;;5034500;28;19905;-60
2021/12/18 07:19:41;;;;;;;;;;;3.30;99.90;;;;;;5033999;28;19905;-62
2021/12/18 07:22:06;;;;;;;;;;;2.40;99.90;;;;;;5034158;28;19909;-62
2021/12/18 07:24:32;;;;;;;;;;;3.40;99.90;;;;;;5034381;28;19913;-63
2021/12/18 07:26:58;;;;;;;;;;;3.30;99.90;;;;;;5033497;28;19909;-63
2021/12/18 07:29:23;;;;;;;;;;;3.40;99.90;;;;;;5032662;28;19959;-62
2021/12/18 07:31:49;;;;;;;;;;;2.20;99.90;;;;;;5034364;28;20374;-62
2021/12/18 07:34:15;;;;;;;;;;;2.90;99.90;;;;;;5034000;28;19996;-61
2021/12/18 07:36:41;;;;;;;;;;;3.40;99.90;;;;;;5038954;28;20024;-71
2021/12/18 07:39:06;;;;;;;;;;;3.30;99.90;;;;;;5049724;28;19962;-69
2021/12/18 07:41:32;;;;;;;;;;;3.50;99.90;;;;;;5054028;28;20281;-70
2021/12/18 07:43:57;;;;;;;;;;;3.40;99.90;;;;;;5051180;28;19917;-70
2021/12/18 07:46:23;;;;;;;;;;;2.40;99.90;;;;;;5042337;28;19939;-65
2021/12/18 07:48:48;;;;;;;;;;;2.80;99.90;;;;;;5033290;28;19948;-67
2021/12/18 07:51:14;;;;;;;;;;;3.30;99.90;;;;;;5033977;28;20349;-68
2021/12/18 07:53:39;;;;;;;;;;;2.90;99.90;;;;;;5041704;28;19936;-67
2021/12/18 07:56:05;;;;;;;;;;;2.50;99.90;;;;;;5053898;28;19908;-67
2021/12/18 07:58:31;;;;;;;;;;;2.80;99.90;;;;;;5035637;28;19905;-67
2021/12/18 08:00:56;;;;;;;;;;;2.90;99.90;;;;;;5035850;28;19909;-67
2021/12/18 08:03:22;;;;;;;;;;;2.90;99.90;;;;;;5053740;28;19909;-68
2021/12/18 08:05:47;;;;;;;;;;;3.20;99.90;;;;;;5053942;28;19909;-69
2021/12/18 08:08:13;;;;;;;;;;;3.50;99.90;;;;;;5059623;28;19912;-66
2021/12/18 08:10:39;;;;;;;;;;;3.40;99.90;;;;;;5060811;28;19928;-71
2021/12/18 08:13:04;;;;;;;;;;;2.70;99.90;;;;;;5053119;28;19908;-63
2021/12/18 08:15:30;;;;;;;;;;;3.20;99.90;;;;;;5053066;28;19958;-64
2021/12/18 08:17:58;;;;;;;;;;;3.00;99.90;;;;;;5044669;28;19957;-63
2021/12/18 08:20:25;;;;;;;;;;;3.40;99.90;;;;;;5053103;28;19911;-66
2021/12/18 08:22:51;;;;;;;;;;;2.60;99.90;;;;;;5043775;28;20355;-65
2021/12/18 08:25:16;;;;;;;;;;;3.20;99.90;;;;;;5047779;28;19999;-66
2021/12/18 08:27:42;;;;;;;;;;;3.90;99.90;;;;;;5044909;28;19941;-64
2021/12/18 08:30:08;;;;;;;;;;;3.50;99.90;;;;;;5052621;28;19908;-64
2021/12/18 08:32:33;;;;;;;;;;;3.50;99.90;;;;;;5041193;28;19905;-65
2021/12/18 08:34:59;;;;;;;;;;;3.60;99.90;;;;;;5051819;28;19904;-64
2021/12/18 08:37:24;;;;;;;;;;;4.00;99.90;;;;;;5052975;28;20279;-60
2021/12/18 08:39:50;;;;;;;;;;;3.30;99.90;;;;;;5032950;28;19905;-67
2021/12/18 08:42:16;;;;;;;;;;;1.80;99.90;;;;;;5032837;28;19909;-65
2021/12/18 08:44:41;;;;;;;;;;;3.10;99.90;;;;;;5048738;28;19999;-66
2021/12/18 08:47:07;;;;;;;;;;;3.10;99.90;;;;;;5041512;28;20439;-69
2021/12/18 08:49:33;;;;;;;;;;;3.20;99.90;;;;;;5031974;28;19912;-68
2021/12/18 08:51:58;;;;;;;;;;;3.30;99.90;;;;;;5033122;28;20327;-69
2021/12/18 08:54:24;;;;;;;;;;;3.50;99.90;;;;;;5032914;28;19905;-69
2021/12/18 08:56:49;;;;;;;;;;;3.30;99.90;;;;;;5034758;28;19912;-70
2021/12/18 08:59:15;;;;;;;;;;;3.50;99.90;;;;;;5044040;28;19905;-69
2021/12/18 09:01:41;;;;;;;;;;;3.50;99.90;;;;;;5043286;28;19905;-69
2021/12/18 09:04:06;;;;;;;;;;;3.40;99.90;;;;;;5033165;28;19909;-68
2021/12/18 09:06:32;;;;;;;;;;;3.20;99.90;;;;;;5032674;28;19909;-68
2021/12/18 09:08:57;;;;;;;;;;;3.20;99.90;;;;;;5032007;28;19909;-65
2021/12/18 09:11:23;;;;;;;;;;;3.10;99.90;;;;;;5032097;28;19905;-67
2021/12/18 09:13:49;;;;;;;;;;;3.40;99.90;;;;;;5041065;28;19908;-68
2021/12/18 09:16:15;;;;;;;;;;;2.90;99.90;;;;;;5041144;28;19984;-69
2021/12/18 09:18:40;;;;;;;;;;;3.60;99.90;;;;;;5045925;28;20340;-70
2021/12/18 09:21:06;;;;;;;;;;;3.10;99.90;;;;;;5043565;28;20520;-69
2021/12/18 09:23:31;;;;;;;;;;;3.90;99.90;;;;;;5052121;28;19909;-68
2021/12/18 09:25:57;;;;;;;;;;;3.20;99.90;;;;;;5044070;28;19909;-68
2021/12/18 09:28:22;;;;;;;;;;;3.80;99.90;;;;;;5051728;28;19986;-69
2021/12/18 09:30:48;;;;;;;;;;;3.30;99.90;;;;;;5025632;28;19916;-71
2021/12/18 09:33:16;;;;;;;;;;;3.10;99.90;;;;;;5043533;28;19909;-70
2021/12/18 09:35:42;;;;;;;;;;;3.30;99.90;;;;;;5034942;28;19987;-71
2021/12/18 09:38:07;;;;;;;;;;;3.60;99.90;;;;;;5031727;28;20414;-71
2021/12/18 09:40:33;;;;;;;;;;;3.20;99.90;;;;;;5032350;28;19905;-70
2021/12/18 09:42:59;;;;;;;;;;;3.30;99.90;;;;;;5033585;28;19978;-70
2021/12/18 09:45:25;;;;;;;;;;;3.60;99.90;;;;;;5051835;28;20495;-70
2021/12/18 09:47:50;;;;;;;;;;;3.40;99.90;;;;;;5051340;28;19927;-70
2021/12/18 09:50:17;;;;;;;;;;;4.30;99.90;;;;;;5051795;28;20389;-70
2021/12/18 09:52:42;;;;;;;;;;;3.00;99.90;;;;;;5051830;28;19920;-70
2021/12/18 09:55:08;;;;;;;;;;;4.00;99.90;;;;;;5051799;28;20282;-70
2021/12/18 09:57:34;;;;;;;;;;;4.60;99.90;;;;;;5051890;28;19905;-71
2021/12/18 10:00:00;;;;;;;;;;;3.40;99.90;;;;;;5051004;28;19905;-70
2021/12/18 10:02:26;;;;;;;;;;;3.50;99.90;;;;;;5033822;28;19908;-68
2021/12/18 10:04:51;;;;;;;;;;;3.50;99.90;;;;;;5051514;28;19912;-69
2021/12/18 10:07:17;;;;;;;;;;;3.30;99.90;;;;;;5051373;28;19995;-69
2021/12/18 10:09:42;;;;;;;;;;;3.50;99.90;;;;;;5049012;28;19986;-68
2021/12/18 10:12:14;;;;;;;;;;;3.30;99.90;;;;;;5049803;28;19905;-61
2021/12/18 10:14:42;;;;;;;;;;;3.40;99.90;;;;;;5049427;28;20054;-62
2021/12/18 10:17:39;;;;;;;;;;;4.20;99.90;;;;;;5050205;28;19924;-70
2021/12/18 10:20:10;;;;;;;;;;;3.40;99.90;;;;;;5037795;28;19962;-63
2021/12/18 10:23:08;;;;;;;;;;;2.40;99.90;;;;;;5049651;28;19909;-67
2021/12/18 10:25:42;;;;;;;;;;;3.70;99.90;;;;;;5019516;28;20367;-73
2021/12/18 10:28:18;;;;;;;;;;;4.80;99.90;;;;;;5053234;28;19919;-63
2021/12/18 10:30:55;;;;;;;;;;;3.60;99.90;;;;;;5053361;28;19909;-65
2021/12/18 10:33:27;;;;;;;;;;;3.40;99.90;;;;;;5053782;28;19908;-64
2021/12/18 10:35:54;;;;;;;;;;;3.10;99.90;;;;;;5053540;28;19995;-67
2021/12/18 10:38:39;;;;;;;;;;;4.20;99.90;;;;;;5052896;28;20005;-70
2021/12/18 10:41:25;;;;;;;;;;;3.30;99.90;;;;;;5053615;28;19955;-69
2021/12/18 10:43:53;;;;;;;;;;;2.90;99.90;;;;;;5052593;28;19913;-71
2021/12/18 10:46:19;;;;;;;;;;;3.90;99.90;;;;;;5053347;28;20274;-70
2021/12/18 10:48:53;;;;;;;;;;;3.00;99.90;;;;;;5053055;28;19909;-71
2021/12/18 10:51:23;;;;;;;;;;;4.10;99.90;;;;;;5055781;28;19908;-71
2021/12/18 10:53:49;;;;;;;;;;;3.70;99.90;;;;;;5058711;28;19949;-70
2021/12/18 10:56:14;;;;;;;;;;;3.90;99.90;;;;;;5053584;28;19905;-71
2021/12/18 10:58:40;;;;;;;;;;;4.50;99.90;;;;;;5052299;28;19912;-71
2021/12/18 11:01:07;;;;;;;;;;;3.70;99.90;;;;;;5053200;28;19908;-71
2021/12/18 11:03:38;;;;;;;;;;;3.90;99.90;;;;;;5052945;28;19909;-71
2021/12/18 11:06:06;;;;;;;;;;;4.00;99.90;;;;;;5053118;28;19947;-71
2021/12/18 11:08:32;;;;;;;;;;;3.50;99.90;;;;;;5052678;28;19909;-71
2021/12/18 11:13:48;;;;;;;;;;;4.20;99.90;;;;;;5052698;28;20207;-71
2021/12/18 11:16:15;;;;;;;;;;;4.60;99.90;;;;;;5043706;28;19954;-70
2021/12/18 11:18:41;;;;;;;;;;;3.80;99.90;;;;;;5043630;28;20347;-71
2021/12/18 11:21:07;;;;;;;;;;;4.90;99.90;;;;;;5041513;28;19912;-70
2021/12/18 11:23:42;;;;;;;;;;;3.80;99.90;;;;;;5034910;28;19931;-71
2021/12/18 11:26:08;;;;;;;;;;;3.70;99.90;;;;;;5035943;28;20401;-73
2021/12/18 11:28:35;;;;;;;;;;;3.40;99.90;;;;;;5032155;28;20278;-71
2021/12/18 11:31:01;;;;;;;;;;;2.90;99.90;;;;;;5032437;28;20282;-72
2021/12/18 11:33:27;;;;;;;;;;;4.10;99.90;;;;;;5051315;28;19911;-73
2021/12/18 11:35:52;;;;;;;;;;;3.90;99.90;;;;;;5051617;28;19916;-73
2021/12/18 11:38:18;;;;;;;;;;;3.90;99.90;;;;;;5051625;28;20330;-73
2021/12/18 11:40:44;;;;;;;;;;;3.90;99.90;;;;;;5052659;28;19911;-73
2021/12/18 11:43:31;;;;;;;;;;;5.10;99.90;;;;;;5051643;28;19925;-73
2021/12/18 11:45:57;;;;;;;;;;;4.20;99.90;;;;;;5051943;28;19905;-72
2021/12/18 11:48:22;;;;;;;;;;;;;;;;;;5051795;28;20034;-72
2021/12/18 11:50:48;;;;;;;;;;;3.60;99.90;;;;;;5052127;28;19956;-71
2021/12/18 11:53:16;;;;;;;;;;;4.40;99.90;;;;;;5052268;28;20262;-71
2021/12/18 11:55:50;;;;;;;;;;;4.90;99.90;;;;;;5052133;28;19943;-69
2021/12/18 11:58:16;;;;;;;;;;;4.40;99.90;;;;;;5051549;28;19909;-71
2021/12/18 12:00:45;;;;;;;;;;;4.70;99.90;;;;;;5051769;28;19912;-71
2021/12/18 12:03:12;;;;;;;;;;;4.50;99.90;;;;;;5051741;28;19908;-71
2021/12/18 12:05:43;;;;;;;;;;;5.20;99.90;;;;;;5051982;28;19915;-70
2021/12/18 12:08:17;;;;;;;;;;;3.90;99.90;;;;;;5051637;28;19962;-70
2021/12/18 12:11:02;;;;;;;;;;;5.00;99.90;;;;;;5052204;28;19981;-71
2021/12/18 12:13:46;;;;;;;;;;;4.10;99.90;;;;;;5046127;28;20252;-76
2021/12/18 12:16:12;;;;;;;;;;;4.30;99.90;;;;;;5032798;28;20012;-77
2021/12/18 12:19:18;;;;;;;;;;;5.70;99.90;;;;;;5032730;28;20008;-76
2021/12/18 12:21:51;;;;;;;;;;;5.50;99.90;;;;;;4970514;28;19906;-70
2021/12/18 12:24:18;;;;;;;;;;;4.10;99.90;;;;;;4970489;28;20019;-71
2021/12/18 12:26:44;;;;;;;;;;;5.00;99.90;;;;;;5005961;28;20023;-71
2021/12/18 12:29:10;;;;;;;;;;;4.90;99.90;;;;;;5032396;28;20028;-71
2021/12/18 12:31:36;;;;;;;;;;;4.80;99.90;;;;;;5035481;28;19908;-72
2021/12/18 12:34:19;;;;;;;;;;;5.30;99.90;;;;;;5051556;28;20352;-71
2021/12/18 12:36:45;;;;;;;;;;;4.70;99.90;;;;;;5051185;28;20328;-72
2021/12/18 12:39:12;;;;;;;;;;;5.00;99.90;;;;;;5051059;28;19908;-71
2021/12/18 12:41:43;;;;;;;;;;;5.50;99.90;;;;;;5051842;28;19909;-71
2021/12/18 12:44:17;;;;;;;;;;;5.50;99.90;;;;;;5051303;28;19924;-71
2021/12/18 12:46:43;;;;;;;;;;;5.60;99.90;;;;;;5050727;28;19912;-72
2021/12/18 12:49:08;;;;;;;;;;;5.90;99.90;;;;;;5051373;28;19963;-71
2021/12/18 12:51:55;;;;;;;;;;;4.30;99.90;;;;;;5047174;28;19905;-71
2021/12/18 12:54:39;;;;;;;;;;;4.80;99.90;;;;;;5040773;28;19942;-70
2021/12/18 12:57:23;;;;;;;;;;;6.10;99.90;;;;;;5041981;28;19905;-71
2021/12/18 13:00:08;;;;;;;;;;;5.40;99.90;;;;;;5024245;28;20521;-71
2021/12/18 13:02:35;;;;;;;;;;;8.40;99.90;;;;;;5036295;28;19909;-72
2021/12/18 13:05:01;;;;;;;;;;;9.30;99.90;;;;;;5050650;28;19915;-70
2021/12/18 13:07:27;;;;;;;;;;;9.20;99.90;;;;;;5050618;28;19904;-71
2021/12/18 13:09:52;;;;;;;;;;;9.90;99.90;;;;;;5050146;28;19904;-71
2021/12/18 13:12:18;;;;;;;;;;;10.80;99.90;;;;;;5056344;28;19909;-71
2021/12/18 13:14:44;;;;;;;;;;;11.20;99.90;;;;;;5070555;28;19909;-71
2021/12/18 13:17:20;;;;;;;;;;;11.80;99.90;;;;;;5056262;28;19955;-71
2021/12/18 13:19:55;;;;;;;;;;;11.40;99.90;;;;;;5052117;28;19909;-72
2021/12/18 13:22:28;;;;;;;;;;;11.40;99.90;;;;;;5052233;28;19944;-72
2021/12/18 13:25:03;;;;;;;;;;;11.70;99.90;;;;;;5052861;28;19904;-72
2021/12/18 13:27:29;;;;;;;;;;;11.70;99.90;;;;;;5035147;28;19905;-72
2021/12/18 13:30:13;;;;;;;;;;;11.50;99.90;;;;;;5049600;28;19971;-72
2021/12/18 13:32:50;;;;;;;;;;;11.50;99.90;;;;;;5031175;28;19909;-71
2021/12/18 13:35:16;;;;;;;;;;;12.20;99.90;;;;;;5031805;28;19920;-69
2021/12/18 13:37:41;;;;;;;;;;;12.20;99.90;;;;;;5032018;28;20401;-70
2021/12/18 13:40:14;;;;;;;;;;;12.10;99.90;;;;;;5031320;28;19963;-71
2021/12/18 13:42:40;;;;;;;;;;;12.50;99.70;;;;;;5031826;28;20012;-70
2021/12/18 13:45:06;;;;;;;;;;;12.50;99.80;;;;;;5051272;28;19944;-70
2021/12/18 13:47:34;;;;;;;;;;;12.00;99.90;;;;;;5051643;28;19908;-70
2021/12/18 13:50:01;;;;;;;;;;;12.60;99.80;;;;;;5051284;28;19936;-70
2021/12/18 13:52:34;;;;;;;;;;;12.70;99.40;;;;;;5051926;28;19909;-71
2021/12/18 13:55:00;;;;;;;;;;;12.80;99.00;;;;;;5051792;28;19908;-71
2021/12/18 13:57:26;;;;;;;;;;;12.70;98.30;;;;;;5051936;28;20000;-71
2021/12/18 13:59:59;;;;;;;;;;;12.70;98.20;;;;;;5050762;28;20003;-72
2021/12/18 14:02:26;;;;;;;;;;;12.60;98.50;;;;;;5051472;28;19917;-71
2021/12/18 14:04:52;;;;;;;;;;;12.10;99.10;;;;;;5051840;28;19991;-72
2021/12/18 14:07:19;;;;;;;;;;;11.20;99.90;;;;;;5051834;28;19916;-71
2021/12/18 14:09:48;;;;;;;;;;;10.90;99.90;;;;;;5051376;28;19924;-71
2021/12/18 14:12:16;;;;;;;;;;;11.00;99.90;;;;;;5051733;28;20017;-72
2021/12/18 14:14:42;;;;;;;;;;;11.20;99.90;;;;;;5051183;28;19906;-68
2021/12/18 14:17:09;;;;;;;;;;;10.80;99.90;;;;;;5051228;28;20302;-71
2021/12/18 14:19:40;;;;;;;;;;;11.00;99.90;;;;;;5051208;28;19905;-71
2021/12/18 14:22:08;;;;;;;;;;;11.00;99.90;;;;;;5051205;28;19912;-71
2021/12/18 14:24:34;;;;;;;;;;;11.00;99.90;;;;;;5051655;28;19909;-71
2021/12/18 14:27:03;;;;;;;;;;;10.90;99.90;;;;;;5051402;28;20278;-70
2021/12/18 14:29:32;;;;;;;;;;;10.20;99.90;;;;;;5051043;28;19944;-71
2021/12/18 14:31:58;;;;;;;;;;;9.50;99.90;;;;;;5051358;28;19948;-71
2021/12/18 14:34:28;;;;;;;;;;;8.10;99.90;;;;;;5033672;28;19912;-70
2021/12/18 14:37:02;;;;;;;;;;;8.00;99.90;;;;;;5051425;28;19909;-70
2021/12/18 14:39:32;;;;;;;;;;;7.40;99.90;;;;;;5050916;28;19908;-71
2021/12/18 14:42:13;;;;;;;;;;;7.00;99.90;;;;;;5051768;28;19915;-71
2021/12/18 14:45:01;;;;;;;;;;;7.10;99.90;;;;;;5051491;28;19959;-70
2021/12/18 14:47:27;;;;;;;;;;;6.50;99.90;;;;;;5042866;28;20350;-71
2021/12/18 14:49:57;;;;;;;;;;;6.30;99.90;;;;;;5050655;28;19955;-70
2021/12/18 14:52:23;;;;;;;;;;;5.80;99.90;;;;;;5051637;28;20347;-70
2021/12/18 14:54:50;;;;;;;;;;;5.90;99.90;;;;;;5051137;28;19908;-73
2021/12/18 14:57:15;;;;;;;;;;;5.80;99.90;;;;;;5051509;28;19912;-78
2021/12/18 14:59:41;;;;;;;;;;;5.40;99.90;;;;;;5051546;28;19904;-76
2021/12/18 15:02:07;;;;;;;;;;;5.60;99.90;;;;;;5051372;28;19908;-76
2021/12/18 15:04:32;;;;;;;;;;;5.90;99.90;;;;;;5051210;28;19911;-76
2021/12/18 15:06:58;;;;;;;;;;;5.10;99.90;;;;;;5051506;28;19909;-76
2021/12/18 15:09:24;;;;;;;;;;;5.50;99.90;;;;;;5051114;28;19982;-76
2021/12/18 15:11:50;;;;;;;;;;;5.10;99.90;;;;;;5062188;28;19905;-75
2021/12/18 15:14:25;;;;;;;;;;;4.60;99.90;;;;;;5064004;28;20336;-76
2021/12/18 15:16:58;;;;;;;;;;;4.90;99.90;;;;;;5066374;28;19949;-75
2021/12/18 15:19:26;;;;;;;;;;;4.80;99.90;;;;;;5065806;28;19905;-74